Time;durP1;ratioP1;P1;durP2;ratioP2;P2;SDS_P1;SDS_P2;PMS_P1;PMS_P2;Temp;Humidity;BMP_temperature;BMP_pressure;BME280_temperature;BME280_humidity;BME280_pressure;Samples;Min_cycle;Max_cycle;Signal;HPM_P1;HPM_P2
2021/06/06 00:00:00;;;;;;;56.80;40.57;;;;;;;;;;5134728;28;20517;-81
2021/06/06 00:02:27;;;;;;;67.07;44.07;;;;;;;;;;5134346;28;20437;-81
2021/06/06 00:04:53;;;;;;;56.57;40.83;;;;;;;;;;5134581;28;20960;-80
2021/06/06 00:07:22;;;;;;;56.03;40.30;;;;;;;;;;5134910;28;20537;-81
2021/06/06 00:09:48;;;;;;;55.63;39.83;;;;;;;;;;5134568;27;20434;-78
2021/06/06 00:12:15;;;;;;;60.13;41.60;;;;;;;;;;5138265;27;20623;-78
2021/06/06 00:14:42;;;;;;;61.03;40.97;;;;;;;;;;5138812;27;20446;-82
2021/06/06 00:17:09;;;;;;;55.67;40.50;;;;;;;;;;5138670;27;20473;-80
2021/06/06 00:19:36;;;;;;;55.37;38.50;;;;;;;;;;5138738;27;20448;-78
2021/06/06 00:22:04;;;;;;;61.10;42.43;;;;;;;;;;5138357;27;20451;-79
2021/06/06 00:24:33;;;;;;;58.80;40.70;;;;;;;;;;5138291;27;20566;-79
2021/06/06 00:27:00;;;;;;;56.63;40.50;;;;;;;;;;5138519;27;21015;-76
2021/06/06 00:29:28;;;;;;;63.93;41.00;;;;;;;;;;5138647;27;20472;-76
2021/06/06 00:31:55;;;;;;;55.70;38.57;;;;;;;;;;5138511;27;20911;-77
2021/06/06 00:34:23;;;;;;;61.10;40.80;;;;;;;;;;5138137;27;20442;-78
2021/06/06 00:36:49;;;;;;;57.57;39.20;;;;;;;;;;5138196;27;20878;-77
2021/06/06 00:39:16;;;;;;;59.90;39.57;;;;;;;;;;5138320;27;20470;-78
2021/06/06 00:41:46;;;;;;;52.87;37.80;;;;;;;;;;5138273;27;20529;-77
2021/06/06 00:44:13;;;;;;;53.77;36.60;;;;;;;;;;5139363;27;20525;-78
2021/06/06 00:46:40;;;;;;;54.13;36.90;;;;;;;;;;5137910;27;20475;-77
2021/06/06 00:49:07;;;;;;;56.70;36.80;;;;;;;;;;5138287;27;20529;-78
2021/06/06 00:51:37;;;;;;;49.27;37.67;;;;;;;;;;5138077;27;20434;-78
2021/06/06 00:54:07;;;;;;;48.73;37.00;;;;;;;;;;5138075;27;20443;-77
2021/06/06 00:56:34;;;;;;;46.23;34.93;;;;;;;;;;5138591;27;20465;-76
2021/06/06 00:59:02;;;;;;;48.83;32.17;;;;;;;;;;5137733;27;20448;-77
2021/06/06 01:01:29;;;;;;;53.47;32.43;;;;;;;;;;5137579;27;20534;-77
2021/06/06 01:03:57;;;;;;;46.83;33.33;;;;;;;;;;5137586;27;20434;-77
2021/06/06 01:06:25;;;;;;;44.00;34.47;;;;;;;;;;5137765;27;20528;-78
2021/06/06 01:08:53;;;;;;;52.03;35.97;;;;;;;;;;5137760;27;20789;-77
2021/06/06 01:11:22;;;;;;;50.17;31.00;;;;;;;;;;5137929;27;20442;-78
2021/06/06 01:13:51;;;;;;;50.57;34.53;;;;;;;;;;5137342;27;21002;-78
2021/06/06 01:16:20;;;;;;;54.87;37.13;;;;;;;;;;5137212;27;20572;-77
2021/06/06 01:18:48;;;;;;;57.63;36.80;;;;;;;;;;5138217;27;20433;-77
2021/06/06 01:21:20;;;;;;;56.30;36.97;;;;;;;;;;5137828;27;21047;-77
2021/06/06 01:23:57;;;;;;;53.33;37.60;;;;;;;;;;5137308;27;20978;-77
2021/06/06 01:26:26;;;;;;;55.33;36.00;;;;;;;;;;5137723;27;20445;-79
2021/06/06 01:28:57;;;;;;;61.97;36.07;;;;;;;;;;5137957;27;20437;-78
2021/06/06 01:31:25;;;;;;;53.07;38.00;;;;;;;;;;5137715;27;20417;-78
2021/06/06 01:33:55;;;;;;;54.53;38.13;;;;;;;;;;5137390;27;20448;-77
2021/06/06 01:36:23;;;;;;;52.57;33.80;;;;;;;;;;5136980;27;20470;-78
2021/06/06 01:38:52;;;;;;;49.03;32.53;;;;;;;;;;5136911;27;20477;-77
2021/06/06 01:41:21;;;;;;;42.20;31.10;;;;;;;;;;5137593;27;20444;-78
2021/06/06 01:43:49;;;;;;;59.57;32.17;;;;;;;;;;5137380;27;20763;-77
2021/06/06 01:46:18;;;;;;;48.83;31.03;;;;;;;;;;5137049;27;20472;-78
2021/06/06 01:48:46;;;;;;;49.30;32.90;;;;;;;;;;5137053;27;20439;-77
2021/06/06 01:51:16;;;;;;;44.80;30.50;;;;;;;;;;5136906;27;20438;-77
2021/06/06 01:53:44;;;;;;;46.50;29.03;;;;;;;;;;5137826;27;20963;-77
2021/06/06 01:56:12;;;;;;;45.57;32.10;;;;;;;;;;5136443;27;20477;-77
2021/06/06 01:58:40;;;;;;;47.83;31.17;;;;;;;;;;5136844;27;20442;-78
2021/06/06 02:01:09;;;;;;;40.30;28.50;;;;;;;;;;5136447;27;20438;-78
2021/06/06 02:03:36;;;;;;;42.37;29.77;;;;;;;;;;5136399;27;20529;-78
2021/06/06 02:06:04;;;;;;;45.87;29.37;;;;;;;;;;5136730;27;20528;-77
2021/06/06 02:08:33;;;;;;;40.40;29.00;;;;;;;;;;5136823;27;20923;-76
2021/06/06 02:11:01;;;;;;;39.40;26.17;;;;;;;;;;5136244;27;20440;-78
2021/06/06 02:13:30;;;;;;;32.97;24.97;;;;;;;;;;5136529;27;20486;-77
2021/06/06 02:16:00;;;;;;;37.30;26.53;;;;;;;;;;5136429;27;20477;-76
2021/06/06 02:18:27;;;;;;;36.70;26.07;;;;;;;;;;5136700;27;20449;-76
2021/06/06 02:20:54;;;;;;;36.70;26.57;;;;;;;;;;5136076;27;20434;-76
2021/06/06 02:23:22;;;;;;;43.03;29.33;;;;;;;;;;5136383;27;20793;-76
2021/06/06 02:25:49;;;;;;;36.90;26.33;;;;;;;;;;5136497;27;20438;-77
2021/06/06 02:28:21;;;;;;;44.40;29.77;;;;;;;;;;5136414;27;20476;-77
2021/06/06 02:30:52;;;;;;;38.93;29.57;;;;;;;;;;5137076;27;20428;-77
2021/06/06 02:33:23;;;;;;;37.03;27.13;;;;;;;;;;5135277;27;20426;-78
2021/06/06 02:35:52;;;;;;;37.90;29.13;;;;;;;;;;5135731;27;20467;-77
2021/06/06 02:38:23;;;;;;;39.73;28.40;;;;;;;;;;5136359;27;20438;-77
2021/06/06 02:40:51;;;;;;;48.10;32.17;;;;;;;;;;5135720;27;20425;-76
2021/06/06 02:43:20;;;;;;;42.10;30.37;;;;;;;;;;5136245;27;20796;-77
2021/06/06 02:45:47;;;;;;;39.20;30.10;;;;;;;;;;5135955;27;20441;-77
2021/06/06 02:48:15;;;;;;;48.00;30.03;;;;;;;;;;5135846;27;20836;-79
2021/06/06 02:50:44;;;;;;;42.30;30.60;;;;;;;;;;5136551;27;20444;-78
2021/06/06 02:53:14;;;;;;;49.30;32.30;;;;;;;;;;5135464;27;20448;-78
2021/06/06 02:55:43;;;;;;;54.47;35.20;;;;;;;;;;5135371;27;20557;-77
2021/06/06 02:58:11;;;;;;;49.90;36.20;;;;;;;;;;5135656;27;20806;-77
2021/06/06 03:00:40;;;;;;;51.17;33.50;;;;;;;;;;5135592;27;20498;-77
2021/06/06 03:03:09;;;;;;;54.47;38.53;;;;;;;;;;5135224;27;20443;-76
2021/06/06 03:05:36;;;;;;;53.70;35.67;;;;;;;;;;5135149;27;20552;-76
2021/06/06 03:08:05;;;;;;;51.37;36.40;;;;;;;;;;5135142;27;20438;-76
2021/06/06 03:10:33;;;;;;;52.97;35.43;;;;;;;;;;5135407;27;20437;-76
2021/06/06 03:13:02;;;;;;;50.07;32.30;;;;;;;;;;5135627;27;20434;-78
2021/06/06 03:15:31;;;;;;;53.20;37.00;;;;;;;;;;5134976;27;20470;-77
2021/06/06 03:17:59;;;;;;;51.37;36.87;;;;;;;;;;5135318;27;20442;-78
2021/06/06 03:20:28;;;;;;;56.43;37.40;;;;;;;;;;5135049;27;20448;-77
2021/06/06 03:22:56;;;;;;;55.97;37.90;;;;;;;;;;5135499;27;20799;-77
2021/06/06 03:25:29;;;;;;;56.33;39.40;;;;;;;;;;5135443;27;20509;-78
2021/06/06 03:27:56;;;;;;;56.57;38.83;;;;;;;;;;5135504;27;20537;-78
2021/06/06 03:30:28;;;;;;;54.97;38.70;;;;;;;;;;5134811;27;20477;-77
2021/06/06 03:32:55;;;;;;;53.50;35.97;;;;;;;;;;5135154;27;20676;-78
2021/06/06 03:35:21;;;;;;;64.40;39.97;;;;;;;;;;5135267;27;20467;-77
2021/06/06 03:37:48;;;;;;;54.70;37.63;;;;;;;;;;5134718;27;20445;-78
2021/06/06 03:40:17;;;;;;;60.83;41.00;;;;;;;;;;5135252;27;20528;-77
2021/06/06 03:42:45;;;;;;;53.73;37.47;;;;;;;;;;5134895;27;20448;-77
2021/06/06 03:45:12;;;;;;;60.10;38.00;;;;;;;;;;5133667;27;20956;-77
2021/06/06 03:47:39;;;;;;;47.30;35.57;;;;;;;;;;5134553;27;20438;-77
2021/06/06 03:50:08;;;;;;;52.27;36.80;;;;;;;;;;5135269;27;20787;-77
2021/06/06 03:52:35;;;;;;;53.73;39.93;;;;;;;;;;5135088;27;20453;-76
2021/06/06 03:55:02;;;;;;;62.63;40.33;;;;;;;;;;5135104;27;20453;-76
2021/06/06 03:57:32;;;;;;;52.87;39.23;;;;;;;;;;5134349;27;20481;-76
2021/06/06 04:00:00;;;;;;;55.50;37.20;;;;;;;;;;5134465;27;20422;-76
2021/06/06 04:02:27;;;;;;;56.83;37.90;;;;;;;;;;5134194;28;20444;-77
2021/06/06 04:04:54;;;;;;;43.43;33.17;;;;;;;;;;5134666;28;20434;-78
2021/06/06 04:07:20;;;;;;;46.30;32.40;;;;;;;;;;5134762;28;20929;-79
2021/06/06 04:09:47;;;;;;;49.00;35.03;;;;;;;;;;5134562;28;20442;-77
2021/06/06 04:12:14;;;;;;;58.77;37.63;;;;;;;;;;5134589;28;20872;-77
2021/06/06 04:14:41;;;;;;;47.73;35.03;;;;;;;;;;5134549;28;20463;-77
2021/06/06 04:17:09;;;;;;;44.93;34.73;;;;;;;;;;5134546;28;20473;-77
2021/06/06 04:19:36;;;;;;;43.17;33.70;;;;;;;;;;5134722;28;20452;-77
2021/06/06 04:22:03;;;;;;;42.40;33.70;;;;;;;;;;5134163;28;20963;-77
2021/06/06 04:24:29;;;;;;;48.80;36.63;;;;;;;;;;5134500;28;20450;-76
2021/06/06 04:26:56;;;;;;;50.53;33.43;;;;;;;;;;5134053;28;20552;-77
2021/06/06 04:29:23;;;;;;;46.57;33.30;;;;;;;;;;5135201;28;20422;-77
2021/06/06 04:31:49;;;;;;;42.70;31.10;;;;;;;;;;5134351;28;20508;-77
2021/06/06 04:34:17;;;;;;;44.80;32.60;;;;;;;;;;5134348;28;20533;-77
2021/06/06 04:36:48;;;;;;;38.90;32.70;;;;;;;;;;5134345;28;20485;-76
2021/06/06 04:39:14;;;;;;;41.27;32.97;;;;;;;;;;5134608;28;20774;-77
2021/06/06 04:41:41;;;;;;;42.33;33.80;;;;;;;;;;5134201;28;20440;-77
2021/06/06 04:44:08;;;;;;;49.00;32.23;;;;;;;;;;5133945;28;20453;-77
2021/06/06 04:46:34;;;;;;;47.83;32.67;;;;;;;;;;5134222;28;20449;-75
2021/06/06 04:49:01;;;;;;;40.90;31.27;;;;;;;;;;5127415;28;20453;-76
2021/06/06 04:51:29;;;;;;;39.57;30.20;;;;;;;;;;5116413;28;20461;-76
2021/06/06 04:53:56;;;;;;;38.37;29.97;;;;;;;;;;5113276;28;20435;-76
2021/06/06 04:56:24;;;;;;;38.63;29.53;;;;;;;;;;5113390;28;20479;-76
2021/06/06 04:58:51;;;;;;;39.30;30.60;;;;;;;;;;5117032;28;20442;-76
2021/06/06 05:01:18;;;;;;;40.80;30.40;;;;;;;;;;5117035;28;20452;-75
2021/06/06 05:03:45;;;;;;;36.27;30.20;;;;;;;;;;5116569;28;20927;-75
2021/06/06 05:06:12;;;;;;;41.53;32.37;;;;;;;;;;5117057;28;20446;-75
2021/06/06 05:08:40;;;;;;;32.63;28.37;;;;;;;;;;5116856;28;20435;-75
2021/06/06 05:11:07;;;;;;;39.80;31.27;;;;;;;;;;5118026;28;20842;-76
2021/06/06 05:13:34;;;;;;;44.87;32.20;;;;;;;;;;5117182;28;20435;-76
2021/06/06 05:16:01;;;;;;;45.20;31.73;;;;;;;;;;5116745;28;20470;-76
2021/06/06 05:18:28;;;;;;;41.53;31.17;;;;;;;;;;5116956;28;20435;-76
2021/06/06 05:20:55;;;;;;;34.27;29.80;;;;;;;;;;5117031;28;20435;-76
2021/06/06 05:23:24;;;;;;;37.10;29.70;;;;;;;;;;5116997;28;20438;-76
2021/06/06 05:25:52;;;;;;;36.83;29.40;;;;;;;;;;5116940;28;20512;-77
2021/06/06 05:28:21;;;;;;;40.50;30.07;;;;;;;;;;5116474;28;20553;-77
2021/06/06 05:30:48;;;;;;;41.77;29.97;;;;;;;;;;5116539;28;20443;-76
2021/06/06 05:33:14;;;;;;;39.27;30.23;;;;;;;;;;5116941;28;20447;-77
2021/06/06 05:35:41;;;;;;;36.33;30.23;;;;;;;;;;5116639;28;20443;-83
2021/06/06 05:38:09;;;;;;;43.83;32.57;;;;;;;;;;5117346;28;20439;-76
2021/06/06 05:40:37;;;;;;;42.93;30.97;;;;;;;;;;5117454;28;20443;-76
2021/06/06 05:43:05;;;;;;;37.87;29.03;;;;;;;;;;5116894;28;20439;-75
2021/06/06 05:45:32;;;;;;;50.30;30.97;;;;;;;;;;5126677;27;20442;-75
2021/06/06 05:47:59;;;;;;;45.93;30.67;;;;;;;;;;5117170;27;20490;-76
2021/06/06 05:50:28;;;;;;;39.37;31.33;;;;;;;;;;5131419;27;20442;-76
2021/06/06 05:52:55;;;;;;;40.80;28.60;;;;;;;;;;5136667;27;20445;-76
2021/06/06 05:55:22;;;;;;;39.17;28.87;;;;;;;;;;5136878;27;20439;-75
2021/06/06 05:57:49;;;;;;;39.07;30.00;;;;;;;;;;5136841;27;20868;-75
2021/06/06 06:00:20;;;;;;;35.13;29.37;;;;;;;;;;5136488;27;20442;-75
2021/06/06 06:02:47;;;;;;;33.20;27.67;;;;;;;;;;5136492;27;20428;-74
2021/06/06 06:05:14;;;;;;;36.87;30.20;;;;;;;;;;5136648;27;20835;-75
2021/06/06 06:07:40;;;;;;;39.83;30.30;;;;;;;;;;5136364;27;20927;-75
2021/06/06 06:10:08;;;;;;;42.37;31.13;;;;;;;;;;5135683;27;20468;-74
2021/06/06 06:12:35;;;;;;;39.50;29.40;;;;;;;;;;5136592;27;20633;-74
2021/06/06 06:15:01;;;;;;;46.17;30.80;;;;;;;;;;5123239;27;20477;-75
2021/06/06 06:17:29;;;;;;;32.83;27.90;;;;;;;;;;5115833;28;20540;-76
2021/06/06 06:19:56;;;;;;;43.00;29.27;;;;;;;;;;5116609;28;20521;-76
2021/06/06 06:22:23;;;;;;;38.70;30.30;;;;;;;;;;5115494;28;20445;-77
2021/06/06 06:24:49;;;;;;;42.00;29.50;;;;;;;;;;5115746;28;20474;-76
2021/06/06 06:27:16;;;;;;;43.00;29.47;;;;;;;;;;5115056;28;20466;-77
2021/06/06 06:29:43;;;;;;;45.60;31.70;;;;;;;;;;5115579;28;20443;-72
2021/06/06 06:32:09;;;;;;;41.93;30.67;;;;;;;;;;5115902;28;20450;-76
2021/06/06 06:34:38;;;;;;;51.13;32.37;;;;;;;;;;5115482;28;20442;-76
2021/06/06 06:37:04;;;;;;;43.27;31.70;;;;;;;;;;5115560;28;20483;-76
2021/06/06 06:39:31;;;;;;;43.30;30.90;;;;;;;;;;5115501;28;20452;-72
2021/06/06 06:41:58;;;;;;;47.77;30.50;;;;;;;;;;5115128;28;20436;-73
2021/06/06 06:44:24;;;;;;;40.50;30.73;;;;;;;;;;5115470;28;20827;-72
2021/06/06 06:46:51;;;;;;;38.47;30.87;;;;;;;;;;5115647;28;20434;-72
2021/06/06 06:49:18;;;;;;;47.80;29.07;;;;;;;;;;5115686;28;20495;-72
2021/06/06 06:51:46;;;;;;;44.07;30.63;;;;;;;;;;5115212;28;20826;-72
2021/06/06 06:54:13;;;;;;;38.47;29.57;;;;;;;;;;5114841;28;20525;-72
2021/06/06 06:56:40;;;;;;;43.13;29.70;;;;;;;;;;5114752;28;20473;-72
2021/06/06 06:59:07;;;;;;;49.77;32.37;;;;;;;;;;5115120;28;20472;-72
2021/06/06 07:01:33;;;;;;;41.50;30.00;;;;;;;;;;5115106;28;20477;-72
2021/06/06 07:04:00;;;;;;;42.43;31.20;;;;;;;;;;5115105;28;20528;-72
2021/06/06 07:06:27;;;;;;;46.87;30.23;;;;;;;;;;5114502;28;20498;-72
2021/06/06 07:08:55;;;;;;;38.57;26.60;;;;;;;;;;5114887;28;20579;-72
2021/06/06 07:11:23;;;;;;;38.20;30.93;;;;;;;;;;5114582;28;20445;-72
2021/06/06 07:13:50;;;;;;;49.30;30.90;;;;;;;;;;5114398;28;20438;-72
2021/06/06 07:16:18;;;;;;;37.33;29.10;;;;;;;;;;5114663;28;20471;-72
2021/06/06 07:18:45;;;;;;;36.33;28.00;;;;;;;;;;5114682;28;20439;-72
2021/06/06 07:21:15;;;;;;;33.33;29.13;;;;;;;;;;5114953;28;20472;-71
2021/06/06 07:23:42;;;;;;;37.93;30.53;;;;;;;;;;5115019;28;20437;-71
2021/06/06 07:26:13;;;;;;;38.37;30.87;;;;;;;;;;5114637;28;20436;-72
2021/06/06 07:28:40;;;;;;;39.20;30.57;;;;;;;;;;5114182;28;20482;-72
2021/06/06 07:31:07;;;;;;;36.37;30.40;;;;;;;;;;5114210;28;20439;-71
2021/06/06 07:33:38;;;;;;;37.07;29.20;;;;;;;;;;5114151;28;20443;-71
2021/06/06 07:36:06;;;;;;;37.37;31.27;;;;;;;;;;5114482;28;20442;-71
2021/06/06 07:38:33;;;;;;;37.60;30.60;;;;;;;;;;5114028;28;20777;-72
2021/06/06 07:41:00;;;;;;;38.90;29.03;;;;;;;;;;5114297;28;20439;-71
2021/06/06 07:43:28;;;;;;;46.97;33.40;;;;;;;;;;5114751;28;20492;-72
2021/06/06 07:45:55;;;;;;;40.87;31.73;;;;;;;;;;5114265;28;20488;-72
2021/06/06 07:48:22;;;;;;;38.00;32.27;;;;;;;;;;5113952;28;21011;-72
2021/06/06 07:50:50;;;;;;;43.03;33.20;;;;;;;;;;5114224;28;20434;-72
2021/06/06 07:53:17;;;;;;;39.30;30.30;;;;;;;;;;5114163;28;20525;-72
2021/06/06 07:55:44;;;;;;;40.03;30.80;;;;;;;;;;5114640;28;20572;-72
2021/06/06 07:58:18;;;;;;;36.23;31.37;;;;;;;;;;5114272;28;20485;-72
2021/06/06 08:00:46;;;;;;;37.53;28.50;;;;;;;;;;5114118;28;20787;-72
2021/06/06 08:03:12;;;;;;;42.83;30.17;;;;;;;;;;5113738;28;20449;-71
2021/06/06 08:05:40;;;;;;;35.67;31.50;;;;;;;;;;5114111;28;20867;-72
2021/06/06 08:08:08;;;;;;;38.33;28.93;;;;;;;;;;5114152;28;20534;-72
2021/06/06 08:10:36;;;;;;;37.87;30.37;;;;;;;;;;5113622;28;20534;-71
2021/06/06 08:13:04;;;;;;;31.53;27.43;;;;;;;;;;5114427;28;20440;-71
2021/06/06 08:15:30;;;;;;;35.83;28.43;;;;;;;;;;5113936;28;20474;-71
2021/06/06 08:18:02;;;;;;;29.93;26.70;;;;;;;;;;5113945;28;20511;-72
2021/06/06 08:20:30;;;;;;;31.60;28.00;;;;;;;;;;5114254;28;20428;-72
2021/06/06 08:22:57;;;;;;;40.80;25.47;;;;;;;;;;5113413;28;20445;-76
2021/06/06 08:25:24;;;;;;;32.60;27.00;;;;;;;;;;5113817;28;20522;-75
2021/06/06 08:27:51;;;;;;;31.03;26.87;;;;;;;;;;5113534;28;20462;-72
2021/06/06 08:30:21;;;;;;;27.93;24.97;;;;;;;;;;5113852;28;20854;-74
2021/06/06 08:32:48;;;;;;;33.23;27.67;;;;;;;;;;5116417;28;20444;-74
2021/06/06 08:35:17;;;;;;;29.67;25.83;;;;;;;;;;5117239;28;20443;-70
2021/06/06 08:37:44;;;;;;;29.67;23.60;;;;;;;;;;5117985;28;20491;-73
2021/06/06 08:40:12;;;;;;;29.03;25.33;;;;;;;;;;5117849;28;20435;-73
2021/06/06 08:42:40;;;;;;;31.20;25.90;;;;;;;;;;5117417;28;20438;-74
2021/06/06 08:45:09;;;;;;;29.60;26.40;;;;;;;;;;5117736;28;20447;-72
2021/06/06 08:47:37;;;;;;;35.17;25.27;;;;;;;;;;5117353;28;20457;-72
2021/06/06 08:50:06;;;;;;;31.73;26.50;;;;;;;;;;5117998;28;20436;-72
2021/06/06 08:52:37;;;;;;;31.13;26.27;;;;;;;;;;5117572;28;20437;-72
2021/06/06 08:55:09;;;;;;;31.57;24.93;;;;;;;;;;5117805;28;20785;-72
2021/06/06 08:57:38;;;;;;;30.03;24.63;;;;;;;;;;5117084;28;20526;-71
2021/06/06 09:00:08;;;;;;;28.80;25.47;;;;;;;;;;5116953;28;20553;-71
2021/06/06 09:02:35;;;;;;;29.50;23.77;;;;;;;;;;5117098;28;20465;-72
2021/06/06 09:05:03;;;;;;;34.67;24.13;;;;;;;;;;5117011;28;20932;-72
2021/06/06 09:07:33;;;;;;;31.50;25.60;;;;;;;;;;5116772;28;20452;-71
2021/06/06 09:10:03;;;;;;;29.03;24.40;;;;;;;;;;5116861;28;20458;-71
2021/06/06 09:12:30;;;;;;;29.00;23.73;;;;;;;;;;5117073;28;20936;-71
2021/06/06 09:14:57;;;;;;;28.17;22.20;;;;;;;;;;5116809;28;20442;-71
2021/06/06 09:17:34;;;;;;;31.10;23.53;;;;;;;;;;5116561;28;20515;-71
2021/06/06 09:20:01;;;;;;;29.73;26.07;;;;;;;;;;5116592;28;20465;-71
2021/06/06 09:22:30;;;;;;;30.57;24.87;;;;;;;;;;5116442;28;20959;-71
2021/06/06 09:25:08;;;;;;;34.30;25.00;;;;;;;;;;5116516;28;20451;-72
2021/06/06 09:27:36;;;;;;;32.83;23.30;;;;;;;;;;5116783;28;20587;-72
2021/06/06 09:30:06;;;;;;;29.80;24.67;;;;;;;;;;5116587;28;20943;-72
2021/06/06 09:32:33;;;;;;;30.73;23.53;;;;;;;;;;5116773;28;20783;-73
2021/06/06 09:35:06;;;;;;;29.53;23.80;;;;;;;;;;5116717;28;20431;-72
2021/06/06 09:37:35;;;;;;;33.57;24.53;;;;;;;;;;5116597;28;20592;-73
2021/06/06 09:40:05;;;;;;;30.70;24.53;;;;;;;;;;5116311;28;20565;-72
2021/06/06 09:42:39;;;;;;;30.53;23.63;;;;;;;;;;5116037;28;20556;-73
2021/06/06 09:45:09;;;;;;;25.03;22.37;;;;;;;;;;5115575;28;20434;-72
2021/06/06 09:47:35;;;;;;;29.83;23.37;;;;;;;;;;5116094;28;20442;-71
2021/06/06 09:50:06;;;;;;;26.43;20.77;;;;;;;;;;5116643;28;20445;-72
2021/06/06 09:52:41;;;;;;;32.80;24.63;;;;;;;;;;5117062;28;20427;-71
2021/06/06 09:55:14;;;;;;;34.20;25.53;;;;;;;;;;5117132;28;20426;-71
2021/06/06 09:57:43;;;;;;;26.73;21.43;;;;;;;;;;5116794;28;20594;-71
2021/06/06 10:00:15;;;;;;;35.67;26.30;;;;;;;;;;5116198;28;20446;-71
2021/06/06 10:02:43;;;;;;;33.60;26.57;;;;;;;;;;5116289;28;20427;-71
2021/06/06 10:05:12;;;;;;;35.60;25.30;;;;;;;;;;5116137;28;20446;-71
2021/06/06 10:07:40;;;;;;;39.03;27.37;;;;;;;;;;5116387;28;20447;-72
2021/06/06 10:10:10;;;;;;;31.47;26.03;;;;;;;;;;5115804;28;20444;-71
2021/06/06 10:12:40;;;;;;;33.90;24.90;;;;;;;;;;5115802;28;20476;-71
2021/06/06 10:15:11;;;;;;;34.37;26.80;;;;;;;;;;5115645;28;20963;-73
2021/06/06 10:17:40;;;;;;;34.87;27.83;;;;;;;;;;5115580;28;20463;-73
2021/06/06 10:20:09;;;;;;;31.00;26.40;;;;;;;;;;5115856;28;20496;-72
2021/06/06 10:22:38;;;;;;;36.43;26.13;;;;;;;;;;5116216;28;20526;-74
2021/06/06 10:25:10;;;;;;;35.73;26.47;;;;;;;;;;5115736;28;20469;-73
2021/06/06 10:27:39;;;;;;;32.70;23.23;;;;;;;;;;5115745;28;20520;-73
2021/06/06 10:30:07;;;;;;;26.37;23.27;;;;;;;;;;5115758;28;20450;-73
2021/06/06 10:32:37;;;;;;;28.33;23.43;;;;;;;;;;5115325;28;21011;-73
2021/06/06 10:35:09;;;;;;;31.30;25.90;;;;;;;;;;5115318;28;20431;-73
2021/06/06 10:37:35;;;;;;;27.27;23.30;;;;;;;;;;5115456;28;20574;-73
2021/06/06 10:40:05;;;;;;;31.90;24.77;;;;;;;;;;5115473;28;20528;-73
2021/06/06 10:42:34;;;;;;;29.60;23.23;;;;;;;;;;5115157;28;20427;-74
2021/06/06 10:45:05;;;;;;;32.50;24.30;;;;;;;;;;5115240;28;20529;-73
2021/06/06 10:47:35;;;;;;;32.20;24.13;;;;;;;;;;5115185;28;20474;-72
2021/06/06 10:50:11;;;;;;;30.17;22.30;;;;;;;;;;5115344;28;20538;-73
2021/06/06 10:52:39;;;;;;;26.93;22.63;;;;;;;;;;5115777;28;20956;-73
2021/06/06 10:55:15;;;;;;;26.87;21.03;;;;;;;;;;5114844;28;20807;-74
2021/06/06 10:57:42;;;;;;;28.03;22.30;;;;;;;;;;5114958;28;20459;-72
2021/06/06 11:00:12;;;;;;;25.83;22.70;;;;;;;;;;5115333;28;20522;-73
2021/06/06 11:02:40;;;;;;;25.50;22.50;;;;;;;;;;5114905;28;20431;-73
2021/06/06 11:05:10;;;;;;;23.90;21.30;;;;;;;;;;5115258;28;20441;-73
2021/06/06 11:07:39;;;;;;;20.83;18.70;;;;;;;;;;5115059;28;20495;-73
2021/06/06 11:10:09;;;;;;;22.30;19.27;;;;;;;;;;5114663;28;20537;-74
2021/06/06 11:12:37;;;;;;;23.13;18.63;;;;;;;;;;5115328;28;20929;-74
2021/06/06 11:15:16;;;;;;;25.53;20.87;;;;;;;;;;5114509;28;20434;-74
2021/06/06 11:17:43;;;;;;;26.03;19.23;;;;;;;;;;5114634;28;20487;-73
2021/06/06 11:20:13;;;;;;;26.50;19.03;;;;;;;;;;5115202;28;20931;-74
2021/06/06 11:22:41;;;;;;;24.87;18.60;;;;;;;;;;5114730;28;20481;-73
2021/06/06 11:25:25;;;;;;;20.60;18.40;;;;;;;;;;5114727;28;20438;-74
2021/06/06 11:27:54;;;;;;;23.27;19.23;;;;;;;;;;5114537;28;20466;-73
2021/06/06 11:30:37;;;;;;;21.90;18.13;;;;;;;;;;5114563;28;20431;-73
2021/06/06 11:33:06;;;;;;;20.20;18.20;;;;;;;;;;5114296;28;20539;-73
2021/06/06 11:35:57;;;;;;;20.17;17.00;;;;;;;;;;5114556;28;20447;-73
2021/06/06 11:38:31;;;;;;;17.83;16.03;;;;;;;;;;5099447;28;20521;-73
2021/06/06 11:41:15;;;;;;;19.00;15.70;;;;;;;;;;5114294;28;20444;-73
2021/06/06 11:43:50;;;;;;;19.60;15.67;;;;;;;;;;5115120;28;20510;-73
2021/06/06 11:46:23;;;;;;;18.50;15.57;;;;;;;;;;5114187;28;20477;-74
2021/06/06 11:48:57;;;;;;;18.17;16.27;;;;;;;;;;5114013;28;20830;-72
2021/06/06 11:51:26;;;;;;;20.13;17.23;;;;;;;;;;5114795;28;20977;-71
2021/06/06 11:53:54;;;;;;;18.00;16.17;;;;;;;;;;5114455;28;20442;-73
2021/06/06 11:56:27;;;;;;;17.53;15.63;;;;;;;;;;5114048;28;20441;-72
2021/06/06 11:58:56;;;;;;;17.00;14.43;;;;;;;;;;5115143;28;20481;-72
2021/06/06 12:01:25;;;;;;;18.57;14.40;;;;;;;;;;5113832;28;20436;-73
2021/06/06 12:03:53;;;;;;;16.70;15.00;;;;;;;;;;5114113;28;20538;-71
2021/06/06 12:06:26;;;;;;;15.33;13.73;;;;;;;;;;5112856;28;20495;-70
2021/06/06 12:08:55;;;;;;;15.23;13.60;;;;;;;;;;5113748;28;20458;-70
2021/06/06 12:11:23;;;;;;;17.00;13.20;;;;;;;;;;5114763;28;20950;-71
2021/06/06 12:13:51;;;;;;;16.50;14.23;;;;;;;;;;5114019;28;20451;-70
2021/06/06 12:16:20;;;;;;;17.23;15.60;;;;;;;;;;5114437;28;20431;-71
2021/06/06 12:18:48;;;;;;;15.47;14.07;;;;;;;;;;5114277;28;20479;-71
2021/06/06 12:21:18;;;;;;;14.43;12.93;;;;;;;;;;5114017;28;20443;-71
2021/06/06 12:23:46;;;;;;;15.10;13.50;;;;;;;;;;5114920;28;20987;-71
2021/06/06 12:26:16;;;;;;;15.73;14.20;;;;;;;;;;5114309;28;20489;-72
2021/06/06 12:28:46;;;;;;;16.40;14.73;;;;;;;;;;5114861;28;20474;-71
2021/06/06 12:31:25;;;;;;;16.00;14.40;;;;;;;;;;5114763;28;20518;-71
2021/06/06 12:33:52;;;;;;;14.50;13.00;;;;;;;;;;5115048;28;20523;-71
2021/06/06 12:36:30;;;;;;;14.60;13.10;;;;;;;;;;5114019;28;20498;-71
2021/06/06 12:38:58;;;;;;;18.80;16.90;;;;;;;;;;5114241;28;20430;-71
2021/06/06 12:41:26;;;;;;;18.60;16.60;;;;;;;;;;5113601;28;20483;-70
2021/06/06 12:43:54;;;;;;;18.00;15.17;;;;;;;;;;5113859;28;20439;-71
2021/06/06 12:46:22;;;;;;;17.77;15.87;;;;;;;;;;5113758;28;20439;-71
2021/06/06 12:48:58;;;;;;;17.57;15.63;;;;;;;;;;5113622;28;20533;-71
2021/06/06 12:51:26;;;;;;;19.83;16.17;;;;;;;;;;5113796;28;20446;-71
2021/06/06 12:53:54;;;;;;;20.53;15.63;;;;;;;;;;5113338;28;20519;-71
2021/06/06 12:56:28;;;;;;;20.43;16.20;;;;;;;;;;5113285;28;20932;-72
2021/06/06 12:59:04;;;;;;;21.17;16.93;;;;;;;;;;5114452;28;20466;-70
2021/06/06 13:01:31;;;;;;;18.63;16.73;;;;;;;;;;5114262;28;20529;-71
2021/06/06 13:03:57;;;;;;;18.60;16.50;;;;;;;;;;5113711;28;20435;-71
2021/06/06 13:06:39;;;;;;;22.90;16.63;;;;;;;;;;5113658;28;20443;-71
2021/06/06 13:09:11;;;;;;;19.47;15.20;;;;;;;;;;5114202;28;20423;-73
2021/06/06 13:11:39;;;;;;;20.73;16.40;;;;;;;;;;5113672;28;20483;-71
2021/06/06 13:14:17;;;;;;;20.70;17.23;;;;;;;;;;5114084;28;20529;-71
2021/06/06 13:16:47;;;;;;;18.83;16.70;;;;;;;;;;5113342;28;20423;-72
2021/06/06 13:19:19;;;;;;;21.93;18.17;;;;;;;;;;5117249;28;20489;-72
2021/06/06 13:21:48;;;;;;;21.30;16.83;;;;;;;;;;5117007;28;20435;-71
2021/06/06 13:24:16;;;;;;;18.37;15.07;;;;;;;;;;5116839;28;20479;-70
2021/06/06 13:26:46;;;;;;;19.03;14.60;;;;;;;;;;5116912;28;22225;-70
2021/06/06 13:29:15;;;;;;;16.27;14.10;;;;;;;;;;5116817;28;20510;-71
2021/06/06 13:31:43;;;;;;;16.40;14.60;;;;;;;;;;5117392;28;20476;-71
2021/06/06 13:34:10;;;;;;;17.27;15.30;;;;;;;;;;5116890;28;20469;-70
2021/06/06 13:36:38;;;;;;;15.80;14.13;;;;;;;;;;5116339;28;20445;-71
2021/06/06 13:39:15;;;;;;;19.83;14.70;;;;;;;;;;5116311;28;20439;-71
2021/06/06 13:41:42;;;;;;;14.03;11.30;;;;;;;;;;5117307;28;20772;-72
2021/06/06 13:44:10;;;;;;;18.20;13.90;;;;;;;;;;5116259;28;20919;-70
2021/06/06 13:46:37;;;;;;;15.03;13.47;;;;;;;;;;5116494;28;20529;-71
2021/06/06 13:49:04;;;;;;;15.00;13.37;;;;;;;;;;5116771;28;20534;-71
2021/06/06 13:51:31;;;;;;;18.50;15.27;;;;;;;;;;5116732;28;20537;-71
2021/06/06 13:53:58;;;;;;;17.20;14.00;;;;;;;;;;5116535;28;20446;-71
2021/06/06 13:56:24;;;;;;;18.63;15.37;;;;;;;;;;5116379;28;20447;-71
2021/06/06 13:58:51;;;;;;;14.33;12.50;;;;;;;;;;5116424;28;20475;-71
2021/06/06 14:01:19;;;;;;;16.80;14.40;;;;;;;;;;5115977;28;20452;-71
2021/06/06 14:03:46;;;;;;;15.37;13.80;;;;;;;;;;5115753;28;20970;-71
2021/06/06 14:06:14;;;;;;;15.73;13.57;;;;;;;;;;5116141;28;20434;-71
2021/06/06 14:08:41;;;;;;;19.00;14.57;;;;;;;;;;5115996;28;20498;-72
2021/06/06 14:11:10;;;;;;;19.90;15.03;;;;;;;;;;5116152;28;20443;-71
2021/06/06 14:13:39;;;;;;;23.47;15.07;;;;;;;;;;5116038;28;21032;-72
2021/06/06 14:16:07;;;;;;;17.93;15.53;;;;;;;;;;5115963;28;20442;-72
2021/06/06 14:18:35;;;;;;;19.30;16.43;;;;;;;;;;5115567;28;20472;-72
2021/06/06 14:21:02;;;;;;;19.10;14.93;;;;;;;;;;5115626;28;20538;-72
2021/06/06 14:23:29;;;;;;;20.17;15.93;;;;;;;;;;5115708;28;20495;-71